This is the latest recevied weather packets stored in our database for station/object WD7CGF. If no packets are shown the sender has not sent any weather packets the latest 10 day(s).
| Time | Temp. | Humidity | Pressure | Rain* | Wind** | Luminosity | Snow |
|---|---|---|---|---|---|---|---|
| 1777774079 | 25° C | 30% | 1011.3 hPa | 0 mm | - | - | - |
| 1777772882 | 25.56° C | 30% | 1012 hPa | 0 mm | - | - | - |
| 1777771688 | 25.56° C | 31% | 1011.2 hPa | 0 mm | - | - | - |
| 1777769298 | 26.11° C | 29% | 1011.3 hPa | 0 mm | - | - | - |
| 1777768101 | 26.11° C | 29% | 1012.2 hPa | 0 mm | - | - | - |
| 1777766895 | 26.67° C | 28% | 1012.3 hPa | 0 mm | - | - | - |
| 1777766299 | 26.67° C | 29% | 1011.4 hPa | 0 mm | - | - | - |
| 1777764499 | 26.67° C | 29% | 1011.7 hPa | 0 mm | - | - | - |
| 1777763888 | 26.67° C | 30% | 1011.7 hPa | 0 mm | - | - | - |
| 1777758486 | 25.56° C | 31% | 1012.5 hPa | - | - | - | - |
| 1777757895 | 25.56° C | 28% | 1012.6 hPa | - | - | - | - |
| 1777751898 | 26.67° C | 39% | 1014.8 hPa | - | - | - | - |
| 1777750695 | 25.56° C | 37% | 1015 hPa | - | - | - | - |
| 1777748893 | 25° C | 36% | 1015.2 hPa | - | - | - | - |
| 1777747688 | 24.44° C | 40% | 1014.6 hPa | - | - | - | - |
| 1777746485 | 23.89° C | 39% | 1014.7 hPa | - | - | - | - |
| 1777743501 | 22.22° C | 51% | 1015 hPa | - | - | - | - |
| 1777741100 | 21.11° C | 51% | 1015 hPa | - | - | - | - |
| 1777740488 | 20.56° C | 53% | 1015 hPa | - | - | - | - |
| 1777739896 | 20.56° C | 54% | 1015 hPa | - | - | - | - |
| 1777739285 | 20° C | 55% | 1015.1 hPa | - | - | - | - |
| 1777738695 | 19.44° C | 58% | 1015.1 hPa | - | - | - | - |
| 1777738103 | 18.89° C | 60% | 1014.8 hPa | - | - | - | - |
| 1777737490 | 18.33° C | 58% | 1014.8 hPa | - | - | - | - |
| 1777736899 | 18.33° C | 61% | 1014.8 hPa | - | - | - | - |
* Rain latest hour (hover to see other rain measurements)
** Current wind speed in m/s (hover to see current wind gust speed)